Concho — WDI7438 — position and weather

sailwx.info

Track history (hours):
 
Tides and Currents Weather Stations Pressure Air Temp Water Temp Dewpoint Dewpoint Depression Visibility Wind Speed Wind Dir Waves Ship Positions

Concho

Owner: Kirby Inland Marine LP, Houston, TX. More information available from US FCC via Universal Licensing System and Coast Guard Vessel Documentation Center.

Last reported at 2018-Jun-21 15:58 UTC. Time now 2018-Jun-21 16:28 UTC.
Position N 30°04' W 094°03'.

Length 119 m; draft 2.9 m.

Type: . MMSI: 367728730.

Date/timePositionNaut miles runAvg speedWind from/ knotsBaromVisibWave heightAir tempDewpointWater temp
2018-Jun-21 15:58N 30°04' W 094°03'0 0.0
2018-Jun-21 15:28N 30°04' W 094°03'0 0.0
2018-Jun-21 14:58N 30°04' W 094°03'0 0.0
2018-Jun-21 14:28N 30°04' W 094°03'0 0.0
2018-Jun-21 13:55N 30°04' W 094°03'1 1.7
2018-Jun-21 13:31N 30°04' W 094°03'0 0.1
2018-Jun-21 13:00N 30°04' W 094°03'0 0.0
2018-Jun-21 12:30N 30°04' W 094°03'0 0.0
2018-Jun-21 12:00N 30°04' W 094°03'0 0.0
2018-Jun-21 11:30N 30°04' W 094°03'0 0.0
2018-Jun-21 11:00N 30°04' W 094°03'0 0.0
2018-Jun-21 10:30N 30°04' W 094°03'0 0.0
2018-Jun-21 10:00N 30°04' W 094°03'0 0.0
2018-Jun-21 09:30N 30°04' W 094°03'0 0.0
2018-Jun-21 09:00N 30°04' W 094°03'0 0.0
2018-Jun-21 08:30N 30°04' W 094°03'0 0.0
2018-Jun-21 08:00N 30°04' W 094°03'0 0.0
2018-Jun-21 07:30N 30°04' W 094°03'0 0.0
2018-Jun-21 07:00N 30°04' W 094°03'0 0.0
2018-Jun-21 06:30N 30°04' W 094°03'0 0.0
2018-Jun-21 06:00N 30°04' W 094°03'0 0.0
2018-Jun-21 05:30N 30°04' W 094°03'0 0.0
2018-Jun-21 05:00N 30°04' W 094°03'0 0.0
2018-Jun-21 04:30N 30°04' W 094°03'0 0.0
2018-Jun-21 04:00N 30°04' W 094°03'0 0.0
2018-Jun-21 03:30N 30°04' W 094°03'0 0.0
2018-Jun-21 03:00N 30°04' W 094°03'0 0.0
2018-Jun-21 02:30N 30°04' W 094°03'0 0.0
2018-Jun-21 02:00N 30°04' W 094°03'0 0.0
2018-Jun-21 01:27N 30°04' W 094°03'0 0.0
2018-Jun-21 01:00N 30°04' W 094°03'0 0.0
2018-Jun-21 00:30N 30°04' W 094°03'0 0.0
2018-Jun-21 00:00N 30°04' W 094°03'0 0.0
2018-Jun-20 23:30N 30°04' W 094°03'0 0.0
2018-Jun-20 23:00N 30°04' W 094°03'0 0.0
2018-Jun-20 22:30N 30°04' W 094°03'0 0.0
2018-Jun-20 22:00N 30°04' W 094°03'0 0.0
2018-Jun-20 21:30N 30°04' W 094°03'0 0.0
2018-Jun-20 21:00N 30°04' W 094°03'0 0.0
2018-Jun-20 20:30N 30°04' W 094°03'0 0.0
2018-Jun-20 20:00N 30°04' W 094°03'0 0.0
2018-Jun-20 19:30N 30°04' W 094°03'0 0.0
2018-Jun-20 19:00N 30°04' W 094°03'0 0.0
2018-Jun-20 18:30N 30°04' W 094°03'0 0.0
2018-Jun-20 18:00N 30°04' W 094°03'0 0.0
2018-Jun-20 17:30N 30°04' W 094°03'0 0.0
2018-Jun-20 17:00N 30°04' W 094°03'0 0.0
2018-Jun-20 16:30N 30°04' W 094°03'0 0.0
2018-Jun-20 16:00N 30°04' W 094°03'0 0.0
2018-Jun-20 15:30N 30°04' W 094°03'0 0.0
2018-Jun-20 15:00N 30°04' W 094°03'0 0.0
2018-Jun-20 14:30N 30°04' W 094°03'0 0.0
2018-Jun-20 14:00N 30°04' W 094°03'0 0.0
2018-Jun-20 13:30N 30°04' W 094°03'0 0.0
2018-Jun-20 13:00N 30°04' W 094°03'0 0.0
2018-Jun-20 12:30N 30°04' W 094°03'0 0.3
2018-Jun-20 12:00N 30°04' W 094°03'1 1.3
2018-Jun-20 11:30N 30°04' W 094°04'1 1.1
2018-Jun-20 10:59N 30°04' W 094°03'1 1.2
2018-Jun-20 10:30N 30°04' W 094°02'2 4.7
2018-Jun-20 10:00N 30°02' W 094°02'3 5.9
2018-Jun-20 09:30N 30°01' W 093°59'2 4.9
2018-Jun-20 09:00N 29°60' W 093°56'3 5.9
2018-Jun-20 08:30N 29°59' W 093°53'2 3.2
2018-Jun-20 08:00N 29°58' W 093°51'0 0.7
2018-Jun-20 07:30N 29°58' W 093°51'0 0.0
2018-Jun-20 07:00N 29°58' W 093°51'0 0.0
2018-Jun-20 06:30N 29°58' W 093°51'0 0.0
2018-Jun-20 05:58N 29°58' W 093°51'0 0.0
2018-Jun-20 05:30N 29°58' W 093°51'0 0.0
2018-Jun-20 05:00N 29°58' W 093°51'0 0.0
2018-Jun-20 04:30N 29°58' W 093°51'0 0.0
2018-Jun-20 04:00N 29°58' W 093°51'0 0.0
2018-Jun-20 03:30N 29°58' W 093°51'0 0.0
2018-Jun-20 03:00N 29°58' W 093°51'0 0.0
2018-Jun-20 02:30N 29°58' W 093°51'0 0.0
2018-Jun-20 02:00N 29°58' W 093°51'1 2.1
2018-Jun-20 01:29N 29°58' W 093°52'0 0.0
2018-Jun-20 00:59N 29°58' W 093°52'0 0.0
2018-Jun-20 00:29N 29°58' W 093°52'1 1.5
2018-Jun-20 00:01N 29°58' W 093°51'0 0.8
2018-Jun-19 23:29N 29°58' W 093°51'0 0.0
2018-Jun-19 22:59N 29°58' W 093°51'0 0.0
2018-Jun-19 22:29N 29°58' W 093°51'0 0.0
2018-Jun-19 21:59N 29°58' W 093°51'0 0.0
2018-Jun-19 21:29N 29°58' W 093°51'0 0.0
2018-Jun-19 20:59N 29°58' W 093°51'0 0.0
2018-Jun-19 20:29N 29°58' W 093°51'0 0.3
2018-Jun-19 20:00N 29°58' W 093°51'1 1.7
2018-Jun-19 19:27N 29°58' W 093°52'0 0.0
2018-Jun-19 18:59N 29°58' W 093°52'0 0.0
2018-Jun-19 18:27N 29°58' W 093°52'0 0.0
2018-Jun-19 17:59N 29°58' W 093°52'0 0.2
2018-Jun-19 17:29N 29°58' W 093°52'0 0.0
2018-Jun-19 16:59N 29°58' W 093°52'0 0.0
2018-Jun-19 16:29N 29°58' W 093°52'0 0.0
2018-Jun-19 15:59N 29°58' W 093°52'0 0.0
2018-Jun-19 15:26N 29°58' W 093°52'0 0.0
2018-Jun-19 14:59N 29°58' W 093°52'0 0.0
2018-Jun-19 14:29N 29°58' W 093°52'0 0.0
2018-Jun-19 13:59N 29°58' W 093°52'0 0.0
2018-Jun-19 13:29N 29°58' W 093°52'0 0.0
2018-Jun-19 12:59N 29°58' W 093°52'0 0.0
2018-Jun-19 12:29N 29°58' W 093°52'0 0.0
2018-Jun-19 11:59N 29°58' W 093°52'0 0.0
2018-Jun-19 11:29N 29°58' W 093°52'0 0.0
2018-Jun-19 10:59N 29°58' W 093°52'0 0.0
2018-Jun-19 10:29N 29°58' W 093°52'0 0.0
2018-Jun-19 09:59N 29°58' W 093°52'0 0.0
2018-Jun-19 09:26N 29°58' W 093°52'0 0.0
2018-Jun-19 08:59N 29°58' W 093°52'0 0.0
2018-Jun-19 08:29N 29°58' W 093°52'0 0.0
2018-Jun-19 07:59N 29°58' W 093°52'0 0.0
2018-Jun-19 07:29N 29°58' W 093°52'0 0.0
2018-Jun-19 06:59N 29°58' W 093°52'0 0.0
2018-Jun-19 06:29N 29°58' W 093°52'0 0.0
2018-Jun-19 05:59N 29°58' W 093°52'0 0.0
2018-Jun-19 05:29N 29°58' W 093°52'0 0.0
2018-Jun-19 04:59N 29°58' W 093°52'0 0.0
2018-Jun-19 04:29N 29°58' W 093°52'0 0.0
2018-Jun-19 03:59N 29°58' W 093°52'0 0.0
2018-Jun-19 03:29N 29°58' W 093°52'0 0.0
2018-Jun-19 02:59N 29°58' W 093°52'0 0.0
2018-Jun-19 02:29N 29°58' W 093°52'0 0.0
2018-Jun-19 01:59N 29°58' W 093°52'0 0.0
2018-Jun-19 01:29N 29°58' W 093°52'0 0.0
2018-Jun-19 00:59N 29°58' W 093°52'0 0.0
2018-Jun-19 00:29N 29°58' W 093°52'0 0.0
2018-Jun-19 00:00N 29°58' W 093°52'0 0.0
2018-Jun-18 23:28N 29°58' W 093°52'0 0.0
2018-Jun-18 23:00N 29°58' W 093°52'0 0.0
2018-Jun-18 22:30N 29°58' W 093°52'0 0.0
2018-Jun-18 22:00N 29°58' W 093°52'0 0.0
2018-Jun-18 21:30N 29°58' W 093°52'0 0.0
2018-Jun-18 21:00N 29°58' W 093°52'0 0.0
2018-Jun-18 20:30N 29°58' W 093°52'0 0.5
2018-Jun-18 20:00N 29°58' W 093°51'2 4.7
2018-Jun-18 19:30N 29°59' W 093°54'3 5.1
2018-Jun-18 19:00N 29°60' W 093°57'0 0.3
2018-Jun-18 18:30N 29°60' W 093°57'0 0.0
2018-Jun-18 18:00N 29°60' W 093°57'0 0.0
2018-Jun-18 17:30N 29°60' W 093°57'0 0.0
2018-Jun-18 17:00N 29°60' W 093°57'0 0.0
2018-Jun-18 16:30N 29°60' W 093°57'0 0.0
2018-Jun-18 16:00N 29°60' W 093°57'3 5.3
2018-Jun-18 15:30N 29°59' W 093°54'3 5.4
2018-Jun-18 14:59N 29°58' W 093°51'0 0.0
2018-Jun-18 14:29N 29°58' W 093°51'0 0.0
2018-Jun-18 13:59N 29°58' W 093°51'0 0.0
2018-Jun-18 13:29N 29°58' W 093°51'0 0.0
2018-Jun-18 12:59N 29°58' W 093°51'0 0.0
2018-Jun-18 12:29N 29°58' W 093°51'0 0.0
2018-Jun-18 11:59N 29°58' W 093°51'0 0.0
2018-Jun-18 11:23N 29°58' W 093°51'0 0.0
2018-Jun-18 10:59N 29°58' W 093°51'0 0.0
2018-Jun-18 10:26N 29°58' W 093°51'0 0.0
2018-Jun-18 09:59N 29°58' W 093°51'0 0.0
2018-Jun-18 09:29N 29°58' W 093°51'0 0.0
2018-Jun-18 08:59N 29°58' W 093°51'0 0.0
2018-Jun-18 08:29N 29°58' W 093°51'0 0.0
2018-Jun-18 07:59N 29°58' W 093°51'0 0.0
2018-Jun-18 07:29N 29°58' W 093°51'0 0.0
2018-Jun-18 06:59N 29°58' W 093°51'0 0.0
2018-Jun-18 06:29N 29°58' W 093°51'0 0.0
2018-Jun-18 05:59N 29°58' W 093°51'0 0.0
2018-Jun-18 05:29N 29°58' W 093°51'0 0.0
2018-Jun-18 04:59N 29°58' W 093°51'0 0.0
2018-Jun-18 04:29N 29°58' W 093°51'0 0.5
2018-Jun-18 04:00N 29°58' W 093°51'0 0.0
2018-Jun-18 03:30N 29°58' W 093°51'0 0.0
2018-Jun-18 03:00N 29°58' W 093°51'0 0.5
2018-Jun-18 02:28N 29°58' W 093°51'0 0.0
2018-Jun-18 01:58N 29°58' W 093°51'0 0.0
2018-Jun-18 01:28N 29°58' W 093°51'0 0.0
2018-Jun-18 00:58N 29°58' W 093°51'0 0.0
2018-Jun-18 00:28N 29°58' W 093°51'0 0.0
2018-Jun-17 23:58N 29°58' W 093°51'0 0.0
2018-Jun-17 23:29N 29°58' W 093°51'0 0.0
2018-Jun-17 22:59N 29°58' W 093°51'0 0.0
2018-Jun-17 22:28N 29°58' W 093°51'0 0.0
2018-Jun-17 21:58N 29°58' W 093°51'0 0.0
2018-Jun-17 21:28N 29°58' W 093°51'0 0.0
2018-Jun-17 20:58N 29°58' W 093°51'0 0.0
2018-Jun-17 20:28N 29°58' W 093°51'0 0.0
2018-Jun-17 19:58N 29°58' W 093°51'0 0.0
2018-Jun-17 19:28N 29°58' W 093°51'0 0.0
2018-Jun-17 18:58N 29°58' W 093°51'0 0.0
2018-Jun-17 18:28N 29°58' W 093°51'0 0.0
2018-Jun-17 17:58N 29°58' W 093°51'0 0.0
2018-Jun-17 17:28N 29°58' W 093°51'0 0.0
2018-Jun-17 16:58N 29°58' W 093°51'0 0.0
2018-Jun-17 16:28N 29°58' W 093°51'0 0.0
2018-Jun-17 15:58N 29°58' W 093°51'0 0.0
2018-Jun-17 15:28N 29°58' W 093°51'0 0.0
2018-Jun-17 14:58N 29°58' W 093°51'0 0.0
2018-Jun-17 14:28N 29°58' W 093°51'0 0.0
2018-Jun-17 13:58N 29°58' W 093°51'0 0.0
2018-Jun-17 13:28N 29°58' W 093°51'0 0.0
2018-Jun-17 12:58N 29°58' W 093°51'0 0.0
2018-Jun-17 12:28N 29°58' W 093°51'0 0.0
2018-Jun-17 11:58N 29°58' W 093°51'0 0.0
2018-Jun-17 11:28N 29°58' W 093°51'0 0.0
2018-Jun-17 10:58N 29°58' W 093°51'0 0.0
2018-Jun-17 10:28N 29°58' W 093°51'0 0.0
2018-Jun-17 09:58N 29°58' W 093°51'0 0.0
2018-Jun-17 09:28N 29°58' W 093°51'0 0.0
2018-Jun-17 08:58N 29°58' W 093°51'0 0.0
2018-Jun-17 08:28N 29°58' W 093°51'0 0.0
2018-Jun-17 07:58N 29°58' W 093°51'0 0.0
2018-Jun-17 07:28N 29°58' W 093°51'0 0.0
2018-Jun-17 06:58N 29°58' W 093°51'0 0.0
2018-Jun-17 06:28N 29°58' W 093°51'0 0.0
2018-Jun-17 05:58N 29°58' W 093°51'0 0.0
2018-Jun-17 05:28N 29°58' W 093°51'0 0.0
2018-Jun-17 04:58N 29°58' W 093°51'0 0.0
2018-Jun-17 04:28N 29°58' W 093°51'0 0.0
2018-Jun-17 03:58N 29°58' W 093°51'0 0.0
2018-Jun-17 03:28N 29°58' W 093°51'0 0.0
2018-Jun-17 02:58N 29°58' W 093°51'0 0.0
2018-Jun-17 02:25N 29°58' W 093°51'0 0.0
2018-Jun-17 01:58N 29°58' W 093°51'0 0.0
2018-Jun-17 01:28N 29°58' W 093°51'0 0.0
2018-Jun-17 00:58N 29°58' W 093°51'0 0.0
2018-Jun-17 00:28N 29°58' W 093°51'0 0.0
2018-Jun-16 23:55N 29°58' W 093°51'0 0.0
2018-Jun-16 23:28N 29°58' W 093°51'0 0.0
2018-Jun-16 22:58N 29°58' W 093°51'0 0.0
2018-Jun-16 22:28N 29°58' W 093°51'0 0.0
2018-Jun-16 21:58N 29°58' W 093°51'0 0.0
2018-Jun-16 21:28N 29°58' W 093°51'0 0.0
2018-Jun-16 20:58N 29°58' W 093°51'0 0.0
2018-Jun-16 20:28N 29°58' W 093°51'0 0.0
2018-Jun-16 19:58N 29°58' W 093°51'0 0.0
2018-Jun-16 19:28N 29°58' W 093°51'1 1.7
2018-Jun-16 19:00N 29°58' W 093°52'1 1.6
2018-Jun-16 18:29N 29°58' W 093°51'0 0.0
2018-Jun-16 17:59N 29°58' W 093°51'0 0.0
2018-Jun-16 17:29N 29°58' W 093°51'0 0.0
2018-Jun-16 16:59N 29°58' W 093°51'0 0.0
2018-Jun-16 16:29N 29°58' W 093°51'0 0.0
2018-Jun-16 15:56N 29°58' W 093°51'0 0.0
2018-Jun-16 15:29N 29°58' W 093°51'0 0.0
2018-Jun-16 14:59N 29°58' W 093°51'0 0.0
2018-Jun-16 14:29N 29°58' W 093°51'0 0.0
2018-Jun-16 13:56N 29°58' W 093°51'0 0.0
2018-Jun-16 13:29N 29°58' W 093°51'0 0.0
2018-Jun-16 12:59N 29°58' W 093°51'0 0.0
2018-Jun-16 12:29N 29°58' W 093°51'0 0.0
2018-Jun-16 11:59N 29°58' W 093°51'0 0.0
2018-Jun-16 11:29N 29°58' W 093°51'0 0.0
2018-Jun-16 10:59N 29°58' W 093°51'0 0.0
2018-Jun-16 10:29N 29°58' W 093°51'0 0.0
2018-Jun-16 09:59N 29°58' W 093°51'0 0.0
2018-Jun-16 09:29N 29°58' W 093°51'0 0.0
2018-Jun-16 08:59N 29°58' W 093°51'0 0.0
2018-Jun-16 08:29N 29°58' W 093°51'0 0.0
2018-Jun-16 07:59N 29°58' W 093°51'0 0.0
2018-Jun-16 07:29N 29°58' W 093°51'0 0.0
2018-Jun-16 06:59N 29°58' W 093°51'0 0.0
2018-Jun-16 06:29N 29°58' W 093°51'0 0.0
2018-Jun-16 05:59N 29°58' W 093°51'0 0.0
2018-Jun-16 05:29N 29°58' W 093°51'0 0.0
2018-Jun-16 04:59N 29°58' W 093°51'0 0.0
2018-Jun-16 04:29N 29°58' W 093°51'0 0.0
2018-Jun-16 03:59N 29°58' W 093°51'0 0.0
2018-Jun-16 03:29N 29°58' W 093°51'0 0.0
2018-Jun-16 02:59N 29°58' W 093°51'0 0.0
2018-Jun-16 02:29N 29°58' W 093°51'0 0.0
2018-Jun-16 01:59N 29°58' W 093°51'0 0.0
2018-Jun-16 01:29N 29°58' W 093°51'0 0.0
2018-Jun-16 00:59N 29°58' W 093°51'0 0.0
2018-Jun-16 00:29N 29°58' W 093°51'0 0.0
2018-Jun-15 23:59N 29°58' W 093°51'0 0.0
2018-Jun-15 23:29N 29°58' W 093°51'0 0.0
2018-Jun-15 22:59N 29°58' W 093°51'0 0.0
2018-Jun-15 22:29N 29°58' W 093°51'0 0.0
2018-Jun-15 21:56N 29°58' W 093°51'0 0.0
2018-Jun-15 21:29N 29°58' W 093°51'0 0.0
2018-Jun-15 20:56N 29°58' W 093°51'0 0.0
2018-Jun-15 20:29N 29°58' W 093°51'0 0.0
2018-Jun-15 19:59N 29°58' W 093°51'0 0.0
2018-Jun-15 19:29N 29°58' W 093°51'0 0.0
2018-Jun-15 18:59N 29°58' W 093°51'0 0.0
2018-Jun-15 18:29N 29°58' W 093°51'0 0.0
2018-Jun-15 17:59N 29°58' W 093°51'0 0.0
2018-Jun-15 17:29N 29°58' W 093°51'0 0.0
2018-Jun-15 16:56N 29°58' W 093°51'0 0.0
2018-Jun-15 16:29N 29°58' W 093°51'0 0.0
2018-Jun-15 15:59N 29°58' W 093°51'0 0.0
2018-Jun-15 15:29N 29°58' W 093°51'0 0.0
2018-Jun-15 14:59N 29°58' W 093°51'0 0.0
2018-Jun-15 14:29N 29°58' W 093°51'0 0.1
2018-Jun-15 13:57N 29°58' W 093°51'0 0.2
2018-Jun-15 13:29N 29°58' W 093°51'0 0.0
2018-Jun-15 12:56N 29°58' W 093°51'0 0.0
2018-Jun-15 12:29N 29°58' W 093°51'0 0.0
2018-Jun-15 12:00N 29°58' W 093°51'0 0.0
2018-Jun-15 11:30N 29°58' W 093°51'0 0.0
2018-Jun-15 11:00N 29°58' W 093°51'0 0.0
2018-Jun-15 10:30N 29°58' W 093°51'0 0.0
2018-Jun-15 10:00N 29°58' W 093°51'0 0.0
2018-Jun-15 09:29N 29°58' W 093°51'0 0.0
2018-Jun-15 09:00N 29°58' W 093°51'0 0.0
2018-Jun-15 08:30N 29°58' W 093°51'0 0.0
2018-Jun-15 08:00N 29°58' W 093°51'0 0.0
2018-Jun-15 07:30N 29°58' W 093°51'0 0.0
2018-Jun-15 07:00N 29°58' W 093°51'0 0.0
2018-Jun-15 06:30N 29°58' W 093°51'0 0.0
2018-Jun-15 06:00N 29°58' W 093°51'0 0.0
2018-Jun-15 05:30N 29°58' W 093°51'0 0.0
2018-Jun-15 05:00N 29°58' W 093°51'1 1.5
2018-Jun-15 04:30N 29°58' W 093°51'0 0.0
2018-Jun-15 03:57N 29°58' W 093°51'0 0.0
2018-Jun-15 03:30N 29°58' W 093°51'0 0.0
2018-Jun-15 02:59N 29°58' W 093°51'0 0.9
2018-Jun-15 02:30N 29°58' W 093°51'0 0.3
2018-Jun-15 02:00N 29°58' W 093°51'0 0.7
2018-Jun-15 01:30N 29°58' W 093°51'3 5.9
2018-Jun-15 01:00N 29°59' W 093°55'3 6.4
2018-Jun-15 00:30N 30°01' W 093°58'3 6.5
2018-Jun-15 00:00N 30°01' W 094°02'1 1.3
2018-Jun-14 23:29N 30°02' W 094°02'0 0.0
2018-Jun-14 22:59N 30°02' W 094°02'0 0.0
2018-Jun-14 22:29N 30°02' W 094°02'0 0.0
2018-Jun-14 21:59N 30°02' W 094°02'0 0.0
2018-Jun-14 21:29N 30°02' W 094°02'0 0.0
2018-Jun-14 20:59N 30°02' W 094°02'0 0.0
2018-Jun-14 20:29N 30°02' W 094°02'0 0.0
2018-Jun-14 19:59N 30°02' W 094°02'0 0.0
2018-Jun-14 19:29N 30°02' W 094°02'0 0.0
2018-Jun-14 18:59N 30°02' W 094°02'0 0.0
2018-Jun-14 18:26N 30°02' W 094°02'0 0.0
2018-Jun-14 17:59N 30°02' W 094°02'0 0.0
2018-Jun-14 17:29N 30°02' W 094°02'0 0.0
2018-Jun-14 16:59N 30°02' W 094°02'0 0.0
2018-Jun-14 16:29N 30°02' W 094°02'0 0.0
2018-Jun-14 15:59N 30°02' W 094°02'0 0.0
2018-Jun-14 15:29N 30°02' W 094°02'0 0.0
2018-Jun-14 14:59N 30°02' W 094°02'0 0.0
2018-Jun-14 14:29N 30°02' W 094°02'0 0.0
2018-Jun-14 13:59N 30°02' W 094°02'0 0.0
2018-Jun-14 13:29N 30°02' W 094°02'0 0.0
2018-Jun-14 12:56N 30°02' W 094°02'0 0.0
2018-Jun-14 12:29N 30°02' W 094°02'0 0.0
2018-Jun-14 11:59N 30°02' W 094°02'0 0.0
2018-Jun-14 11:29N 30°02' W 094°02'0 0.0
2018-Jun-14 11:01N 30°02' W 094°02'0 0.0
2018-Jun-14 10:30N 30°02' W 094°02'0 0.0
2018-Jun-14 10:00N 30°02' W 094°02'0 0.0
2018-Jun-14 09:30N 30°02' W 094°02'0 0.0
2018-Jun-14 09:01N 30°02' W 094°02'0 0.0
2018-Jun-14 08:30N 30°02' W 094°02'0 0.0
2018-Jun-14 08:00N 30°02' W 094°02'0 0.0
2018-Jun-14 07:30N 30°02' W 094°02'0 0.0
2018-Jun-14 07:00N 30°02' W 094°02'0 0.0
2018-Jun-14 06:30N 30°02' W 094°02'0 0.0
2018-Jun-14 06:01N 30°02' W 094°02'0 0.0
2018-Jun-14 05:30N 30°02' W 094°02'0 0.0
2018-Jun-14 05:00N 30°02' W 094°02'0 0.0
2018-Jun-14 04:30N 30°02' W 094°02'0 0.0
2018-Jun-14 04:00N 30°02' W 094°02'0 0.0
2018-Jun-14 03:30N 30°02' W 094°02'0 0.0
2018-Jun-14 03:00N 30°02' W 094°02'0 0.0
2018-Jun-14 02:30N 30°02' W 094°02'0 0.0
2018-Jun-14 02:00N 30°02' W 094°02'0 0.0
2018-Jun-14 01:30N 30°02' W 094°02'0 0.0
2018-Jun-14 01:00N 30°02' W 094°02'1 1.5
2018-Jun-14 00:29N 30°01' W 094°01'3 5.5
2018-Jun-14 00:00N 30°01' W 093°58'2 4.3
2018-Jun-13 23:30N 29°60' W 093°56'1 2.3
2018-Jun-13 23:00N 29°60' W 093°55'0 0.1
2018-Jun-13 22:30N 29°60' W 093°55'2 3.7
2018-Jun-13 21:58N 29°59' W 093°53'0 0.0
2018-Jun-13 21:28N 29°59' W 093°53'0 0.0
2018-Jun-13 20:58N 29°59' W 093°53'0 0.0
2018-Jun-13 20:29N 29°59' W 093°53'0 0.0
2018-Jun-13 19:58N 29°59' W 093°53'0 0.0
2018-Jun-13 19:28N 29°59' W 093°53'0 0.0
2018-Jun-13 18:55N 29°59' W 093°53'0 0.0
2018-Jun-13 18:28N 29°59' W 093°53'0 0.0
2018-Jun-13 17:58N 29°59' W 093°53'0 0.0
2018-Jun-13 17:28N 29°59' W 093°53'0 0.0
2018-Jun-13 16:58N 29°59' W 093°53'0 0.0
2018-Jun-13 16:28N 29°59' W 093°53'0 0.0
2018-Jun-13 15:58N 29°59' W 093°53'0 0.0
2018-Jun-13 15:28N 29°59' W 093°53'0 0.0
2018-Jun-13 14:58N 29°59' W 093°53'0 0.0
2018-Jun-13 14:28N 29°59' W 093°53'0 0.0
2018-Jun-13 13:58N 29°59' W 093°53'0 0.0
2018-Jun-13 13:28N 29°59' W 093°53'0 0.0
2018-Jun-13 12:58N 29°59' W 093°53'0 0.0
2018-Jun-13 12:28N 29°59' W 093°53'0 0.0
2018-Jun-13 11:58N 29°59' W 093°53'0 0.0
2018-Jun-13 11:28N 29°59' W 093°53'0 0.0
2018-Jun-13 10:58N 29°59' W 093°53'0 0.0
2018-Jun-13 10:28N 29°59' W 093°53'0 0.0
2018-Jun-13 09:58N 29°59' W 093°53'0 0.0
2018-Jun-13 09:28N 29°59' W 093°53'0 0.0
2018-Jun-13 08:58N 29°59' W 093°53'0 0.0
2018-Jun-13 08:28N 29°59' W 093°53'0 0.0
2018-Jun-13 07:58N 29°59' W 093°53'0 0.0
2018-Jun-13 07:28N 29°59' W 093°53'0 0.0
2018-Jun-13 06:58N 29°59' W 093°53'0 0.0
2018-Jun-13 06:28N 29°59' W 093°53'0 0.0
2018-Jun-13 05:58N 29°59' W 093°53'0 0.0
2018-Jun-13 05:28N 29°59' W 093°53'0 0.0
2018-Jun-13 04:58N 29°59' W 093°53'0 0.0
2018-Jun-13 04:28N 29°59' W 093°53'0 0.0
2018-Jun-13 03:58N 29°59' W 093°53'0 0.0
2018-Jun-13 03:28N 29°59' W 093°53'0 0.0
2018-Jun-13 02:58N 29°59' W 093°53'0 0.0
2018-Jun-13 02:28N 29°59' W 093°53'0 0.0
2018-Jun-13 01:58N 29°59' W 093°53'0 0.0
2018-Jun-13 01:28N 29°59' W 093°53'0 0.0
2018-Jun-13 01:00N 29°59' W 093°53'0 0.0
2018-Jun-13 00:30N 29°59' W 093°53'0 0.0
2018-Jun-13 00:00N 29°59' W 093°53'0 0.0
2018-Jun-12 23:30N 29°59' W 093°53'0 0.0
2018-Jun-12 23:00N 29°59' W 093°53'0 0.0
2018-Jun-12 22:30N 29°59' W 093°53'0 0.0
2018-Jun-12 22:00N 29°59' W 093°53'0 0.0
2018-Jun-12 21:30N 29°59' W 093°53'2 3.4
2018-Jun-12 21:00N 29°60' W 093°55'0 0.1
2018-Jun-12 20:30N 29°60' W 093°55'0 0.5
2018-Jun-12 20:01N 29°60' W 093°55'0 0.0
2018-Jun-12 19:30N 29°60' W 093°55'0 0.0
2018-Jun-12 19:01N 29°60' W 093°55'0 0.0
2018-Jun-12 18:30N 29°60' W 093°55'0 0.0
2018-Jun-12 18:00N 29°60' W 093°55'0 0.0
2018-Jun-12 17:30N 29°60' W 093°55'0 0.0
2018-Jun-12 17:00N 29°60' W 093°55'0 0.0
2018-Jun-12 16:30N 29°60' W 093°55'0 0.0
2018-Jun-12 16:00N 29°60' W 093°55'0 0.0
2018-Jun-12 15:30N 29°60' W 093°55'0 0.0
2018-Jun-12 15:00N 29°60' W 093°55'0 0.0
2018-Jun-12 14:31N 29°60' W 093°55'0 0.0
2018-Jun-12 14:00N 29°60' W 093°55'0 0.0
2018-Jun-12 13:30N 29°60' W 093°55'0 0.0
2018-Jun-12 13:00N 29°60' W 093°55'0 0.0
2018-Jun-12 12:30N 29°60' W 093°55'0 0.0
2018-Jun-12 12:01N 29°60' W 093°55'0 0.0
2018-Jun-12 11:30N 29°60' W 093°55'0 0.0
2018-Jun-12 11:01N 29°60' W 093°55'0 0.0
2018-Jun-12 10:31N 29°60' W 093°55'0 0.0
2018-Jun-12 10:01N 29°60' W 093°55'0 0.0
2018-Jun-12 09:29N 29°60' W 093°55'0 0.0
2018-Jun-12 09:00N 29°60' W 093°55'0 0.0
2018-Jun-12 08:30N 29°60' W 093°55'0 0.0
2018-Jun-12 08:01N 29°60' W 093°55'0 0.0
2018-Jun-12 07:31N 29°60' W 093°55'0 0.0
2018-Jun-12 07:00N 29°60' W 093°55'0 0.0
2018-Jun-12 06:31N 29°60' W 093°55'0 0.0
2018-Jun-12 06:00N 29°60' W 093°55'0 0.0
2018-Jun-12 05:31N 29°60' W 093°55'0 0.0
2018-Jun-12 05:01N 29°60' W 093°55'0 0.0
2018-Jun-12 04:30N 29°60' W 093°55'0 0.0
2018-Jun-12 04:00N 29°60' W 093°55'0 0.0
2018-Jun-12 03:30N 29°60' W 093°55'0 0.0
2018-Jun-12 03:01N 29°60' W 093°55'0 0.0
2018-Jun-12 02:31N 29°60' W 093°55'0 0.0
2018-Jun-12 02:00N 29°60' W 093°55'0 0.0
2018-Jun-12 01:30N 29°60' W 093°55'0 0.0
2018-Jun-12 01:01N 29°60' W 093°55'0 0.0
2018-Jun-12 00:30N 29°60' W 093°55'0 0.0
2018-Jun-12 00:01N 29°60' W 093°55'0 0.0
2018-Jun-11 23:30N 29°60' W 093°55'0 0.0
2018-Jun-11 23:00N 29°60' W 093°55'0 0.0
2018-Jun-11 22:31N 29°60' W 093°55'0 0.0
2018-Jun-11 22:01N 29°60' W 093°55'0 0.0
2018-Jun-11 21:31N 29°60' W 093°55'0 0.0
2018-Jun-11 21:01N 29°60' W 093°55'0 0.0
2018-Jun-11 20:31N 29°60' W 093°55'0 0.0
2018-Jun-11 20:01N 29°60' W 093°55'0 0.0
2018-Jun-11 19:30N 29°60' W 093°55'0 0.0
2018-Jun-11 19:00N 29°60' W 093°55'0 0.0
2018-Jun-11 18:31N 29°60' W 093°55'0 0.0
2018-Jun-11 18:00N 29°60' W 093°55'0 0.0
2018-Jun-11 17:30N 29°60' W 093°55'0 0.0
2018-Jun-11 17:01N 29°60' W 093°55'0 0.0
2018-Jun-11 16:31N 29°60' W 093°55'0 0.0
2018-Jun-11 16:00N 29°60' W 093°55'  
Track history (hours):
 
Tides and Currents Weather Stations Pressure Air Temp Water Temp Dewpoint Dewpoint Depression Visibility Wind Speed Wind Dir Waves Ship Positions

Concho

Owner: Kirby Inland Marine LP, Houston, TX. More information available from US FCC via Universal Licensing System and Coast Guard Vessel Documentation Center.

Last reported at 2018-Jun-21 15:58 UTC. Time now 2018-Jun-21 16:28 UTC.
Position N 30°04' W 094°03'.

Length 119 m; draft 2.9 m.

Type: . MMSI: 367728730.

Date/timePositionNaut miles runAvg speedWind from/ knotsBaromVisibWave heightAir tempDewpointWater temp
2018-Jun-21 15:58N 30°04' W 094°03'0 0.0
2018-Jun-21 15:28N 30°04' W 094°03'0 0.0
2018-Jun-21 14:58N 30°04' W 094°03'0 0.0
2018-Jun-21 14:28N 30°04' W 094°03'0 0.0
2018-Jun-21 13:55N 30°04' W 094°03'1 1.7
2018-Jun-21 13:31N 30°04' W 094°03'0 0.1
2018-Jun-21 13:00N 30°04' W 094°03'0 0.0
2018-Jun-21 12:30N 30°04' W 094°03'0 0.0
2018-Jun-21 12:00N 30°04' W 094°03'0 0.0
2018-Jun-21 11:30N 30°04' W 094°03'0 0.0
2018-Jun-21 11:00N 30°04' W 094°03'0 0.0
2018-Jun-21 10:30N 30°04' W 094°03'0 0.0
2018-Jun-21 10:00N 30°04' W 094°03'0 0.0
2018-Jun-21 09:30N 30°04' W 094°03'0 0.0
2018-Jun-21 09:00N 30°04' W 094°03'0 0.0
2018-Jun-21 08:30N 30°04' W 094°03'0 0.0
2018-Jun-21 08:00N 30°04' W 094°03'0 0.0
2018-Jun-21 07:30N 30°04' W 094°03'0 0.0
2018-Jun-21 07:00N 30°04' W 094°03'0 0.0
2018-Jun-21 06:30N 30°04' W 094°03'0 0.0
2018-Jun-21 06:00N 30°04' W 094°03'0 0.0
2018-Jun-21 05:30N 30°04' W 094°03'0 0.0
2018-Jun-21 05:00N 30°04' W 094°03'0 0.0
2018-Jun-21 04:30N 30°04' W 094°03'0 0.0
2018-Jun-21 04:00N 30°04' W 094°03'0 0.0
2018-Jun-21 03:30N 30°04' W 094°03'0 0.0
2018-Jun-21 03:00N 30°04' W 094°03'0 0.0
2018-Jun-21 02:30N 30°04' W 094°03'0 0.0
2018-Jun-21 02:00N 30°04' W 094°03'0 0.0
2018-Jun-21 01:27N 30°04' W 094°03'0 0.0
2018-Jun-21 01:00N 30°04' W 094°03'0 0.0
2018-Jun-21 00:30N 30°04' W 094°03'0 0.0
2018-Jun-21 00:00N 30°04' W 094°03'0 0.0
2018-Jun-20 23:30N 30°04' W 094°03'0 0.0
2018-Jun-20 23:00N 30°04' W 094°03'0 0.0
2018-Jun-20 22:30N 30°04' W 094°03'0 0.0
2018-Jun-20 22:00N 30°04' W 094°03'0 0.0
2018-Jun-20 21:30N 30°04' W 094°03'0 0.0
2018-Jun-20 21:00N 30°04' W 094°03'0 0.0
2018-Jun-20 20:30N 30°04' W 094°03'0 0.0
2018-Jun-20 20:00N 30°04' W 094°03'0 0.0
2018-Jun-20 19:30N 30°04' W 094°03'0 0.0
2018-Jun-20 19:00N 30°04' W 094°03'0 0.0
2018-Jun-20 18:30N 30°04' W 094°03'0 0.0
2018-Jun-20 18:00N 30°04' W 094°03'0 0.0
2018-Jun-20 17:30N 30°04' W 094°03'0 0.0
2018-Jun-20 17:00N 30°04' W 094°03'0 0.0
2018-Jun-20 16:30N 30°04' W 094°03'0 0.0
2018-Jun-20 16:00N 30°04' W 094°03'0 0.0
2018-Jun-20 15:30N 30°04' W 094°03'0 0.0
2018-Jun-20 15:00N 30°04' W 094°03'0 0.0
2018-Jun-20 14:30N 30°04' W 094°03'0 0.0
2018-Jun-20 14:00N 30°04' W 094°03'0 0.0
2018-Jun-20 13:30N 30°04' W 094°03'0 0.0
2018-Jun-20 13:00N 30°04' W 094°03'0 0.0
2018-Jun-20 12:30N 30°04' W 094°03'0 0.3
2018-Jun-20 12:00N 30°04' W 094°03'1 1.3
2018-Jun-20 11:30N 30°04' W 094°04'1 1.1
2018-Jun-20 10:59N 30°04' W 094°03'1 1.2
2018-Jun-20 10:30N 30°04' W 094°02'2 4.7
2018-Jun-20 10:00N 30°02' W 094°02'3 5.9
2018-Jun-20 09:30N 30°01' W 093°59'2 4.9
2018-Jun-20 09:00N 29°60' W 093°56'3 5.9
2018-Jun-20 08:30N 29°59' W 093°53'2 3.2
2018-Jun-20 08:00N 29°58' W 093°51'0 0.7
2018-Jun-20 07:30N 29°58' W 093°51'0 0.0
2018-Jun-20 07:00N 29°58' W 093°51'0 0.0
2018-Jun-20 06:30N 29°58' W 093°51'0 0.0
2018-Jun-20 05:58N 29°58' W 093°51'0 0.0
2018-Jun-20 05:30N 29°58' W 093°51'0 0.0
2018-Jun-20 05:00N 29°58' W 093°51'0 0.0
2018-Jun-20 04:30N 29°58' W 093°51'0 0.0
2018-Jun-20 04:00N 29°58' W 093°51'0 0.0
2018-Jun-20 03:30N 29°58' W 093°51'0 0.0
2018-Jun-20 03:00N 29°58' W 093°51'0 0.0
2018-Jun-20 02:30N 29°58' W 093°51'0 0.0
2018-Jun-20 02:00N 29°58' W 093°51'1 2.1
2018-Jun-20 01:29N 29°58' W 093°52'0 0.0
2018-Jun-20 00:59N 29°58' W 093°52'0 0.0
2018-Jun-20 00:29N 29°58' W 093°52'1 1.5
2018-Jun-20 00:01N 29°58' W 093°51'0 0.8
2018-Jun-19 23:29N 29°58' W 093°51'0 0.0
2018-Jun-19 22:59N 29°58' W 093°51'0 0.0
2018-Jun-19 22:29N 29°58' W 093°51'0 0.0
2018-Jun-19 21:59N 29°58' W 093°51'0 0.0
2018-Jun-19 21:29N 29°58' W 093°51'0 0.0
2018-Jun-19 20:59N 29°58' W 093°51'0 0.0
2018-Jun-19 20:29N 29°58' W 093°51'0 0.3
2018-Jun-19 20:00N 29°58' W 093°51'1 1.7
2018-Jun-19 19:27N 29°58' W 093°52'0 0.0
2018-Jun-19 18:59N 29°58' W 093°52'0 0.0
2018-Jun-19 18:27N 29°58' W 093°52'0 0.0
2018-Jun-19 17:59N 29°58' W 093°52'0 0.2
2018-Jun-19 17:29N 29°58' W 093°52'0 0.0
2018-Jun-19 16:59N 29°58' W 093°52'0 0.0
2018-Jun-19 16:29N 29°58' W 093°52'0 0.0
2018-Jun-19 15:59N 29°58' W 093°52'0 0.0
2018-Jun-19 15:26N 29°58' W 093°52'0 0.0
2018-Jun-19 14:59N 29°58' W 093°52'0 0.0
2018-Jun-19 14:29N 29°58' W 093°52'0 0.0
2018-Jun-19 13:59N 29°58' W 093°52'0 0.0
2018-Jun-19 13:29N 29°58' W 093°52'0 0.0
2018-Jun-19 12:59N 29°58' W 093°52'0 0.0
2018-Jun-19 12:29N 29°58' W 093°52'0 0.0
2018-Jun-19 11:59N 29°58' W 093°52'0 0.0
2018-Jun-19 11:29N 29°58' W 093°52'0 0.0
2018-Jun-19 10:59N 29°58' W 093°52'0 0.0
2018-Jun-19 10:29N 29°58' W 093°52'0 0.0
2018-Jun-19 09:59N 29°58' W 093°52'0 0.0
2018-Jun-19 09:26N 29°58' W 093°52'0 0.0
2018-Jun-19 08:59N 29°58' W 093°52'0 0.0
2018-Jun-19 08:29N 29°58' W 093°52'0 0.0
2018-Jun-19 07:59N 29°58' W 093°52'0 0.0
2018-Jun-19 07:29N 29°58' W 093°52'0 0.0
2018-Jun-19 06:59N 29°58' W 093°52'0 0.0
2018-Jun-19 06:29N 29°58' W 093°52'0 0.0
2018-Jun-19 05:59N 29°58' W 093°52'0 0.0
2018-Jun-19 05:29N 29°58' W 093°52'0 0.0
2018-Jun-19 04:59N 29°58' W 093°52'0 0.0
2018-Jun-19 04:29N 29°58' W 093°52'0 0.0
2018-Jun-19 03:59N 29°58' W 093°52'0 0.0
2018-Jun-19 03:29N 29°58' W 093°52'0 0.0
2018-Jun-19 02:59N 29°58' W 093°52'0 0.0
2018-Jun-19 02:29N 29°58' W 093°52'0 0.0
2018-Jun-19 01:59N 29°58' W 093°52'0 0.0
2018-Jun-19 01:29N 29°58' W 093°52'0 0.0
2018-Jun-19 00:59N 29°58' W 093°52'0 0.0
2018-Jun-19 00:29N 29°58' W 093°52'0 0.0
2018-Jun-19 00:00N 29°58' W 093°52'0 0.0
2018-Jun-18 23:28N 29°58' W 093°52'0 0.0
2018-Jun-18 23:00N 29°58' W 093°52'0 0.0
2018-Jun-18 22:30N 29°58' W 093°52'0 0.0
2018-Jun-18 22:00N 29°58' W 093°52'0 0.0
2018-Jun-18 21:30N 29°58' W 093°52'0 0.0
2018-Jun-18 21:00N 29°58' W 093°52'0 0.0
2018-Jun-18 20:30N 29°58' W 093°52'0 0.5
2018-Jun-18 20:00N 29°58' W 093°51'2 4.7
2018-Jun-18 19:30N 29°59' W 093°54'3 5.1
2018-Jun-18 19:00N 29°60' W 093°57'0 0.3
2018-Jun-18 18:30N 29°60' W 093°57'0 0.0
2018-Jun-18 18:00N 29°60' W 093°57'0 0.0
2018-Jun-18 17:30N 29°60' W 093°57'0 0.0
2018-Jun-18 17:00N 29°60' W 093°57'0 0.0
2018-Jun-18 16:30N 29°60' W 093°57'0 0.0
2018-Jun-18 16:00N 29°60' W 093°57'3 5.3
2018-Jun-18 15:30N 29°59' W 093°54'3 5.4
2018-Jun-18 14:59N 29°58' W 093°51'0 0.0
2018-Jun-18 14:29N 29°58' W 093°51'0 0.0
2018-Jun-18 13:59N 29°58' W 093°51'0 0.0
2018-Jun-18 13:29N 29°58' W 093°51'0 0.0
2018-Jun-18 12:59N 29°58' W 093°51'0 0.0
2018-Jun-18 12:29N 29°58' W 093°51'0 0.0
2018-Jun-18 11:59N 29°58' W 093°51'0 0.0
2018-Jun-18 11:23N 29°58' W 093°51'0 0.0
2018-Jun-18 10:59N 29°58' W 093°51'0 0.0
2018-Jun-18 10:26N 29°58' W 093°51'0 0.0
2018-Jun-18 09:59N 29°58' W 093°51'0 0.0
2018-Jun-18 09:29N 29°58' W 093°51'0 0.0
2018-Jun-18 08:59N 29°58' W 093°51'0 0.0
2018-Jun-18 08:29N 29°58' W 093°51'0 0.0
2018-Jun-18 07:59N 29°58' W 093°51'0 0.0
2018-Jun-18 07:29N 29°58' W 093°51'0 0.0
2018-Jun-18 06:59N 29°58' W 093°51'0 0.0
2018-Jun-18 06:29N 29°58' W 093°51'0 0.0
2018-Jun-18 05:59N 29°58' W 093°51'0 0.0
2018-Jun-18 05:29N 29°58' W 093°51'0 0.0
2018-Jun-18 04:59N 29°58' W 093°51'0 0.0
2018-Jun-18 04:29N 29°58' W 093°51'0 0.5
2018-Jun-18 04:00N 29°58' W 093°51'0 0.0
2018-Jun-18 03:30N 29°58' W 093°51'0 0.0
2018-Jun-18 03:00N 29°58' W 093°51'0 0.5
2018-Jun-18 02:28N 29°58' W 093°51'0 0.0
2018-Jun-18 01:58N 29°58' W 093°51'0 0.0
2018-Jun-18 01:28N 29°58' W 093°51'0 0.0
2018-Jun-18 00:58N 29°58' W 093°51'0 0.0
2018-Jun-18 00:28N 29°58' W 093°51'0 0.0
2018-Jun-17 23:58N 29°58' W 093°51'0 0.0
2018-Jun-17 23:29N 29°58' W 093°51'0 0.0
2018-Jun-17 22:59N 29°58' W 093°51'0 0.0
2018-Jun-17 22:28N 29°58' W 093°51'0 0.0
2018-Jun-17 21:58N 29°58' W 093°51'0 0.0
2018-Jun-17 21:28N 29°58' W 093°51'0 0.0
2018-Jun-17 20:58N 29°58' W 093°51'0 0.0
2018-Jun-17 20:28N 29°58' W 093°51'0 0.0
2018-Jun-17 19:58N 29°58' W 093°51'0 0.0
2018-Jun-17 19:28N 29°58' W 093°51'0 0.0
2018-Jun-17 18:58N 29°58' W 093°51'0 0.0
2018-Jun-17 18:28N 29°58' W 093°51'0 0.0
2018-Jun-17 17:58N 29°58' W 093°51'0 0.0
2018-Jun-17 17:28N 29°58' W 093°51'0 0.0
2018-Jun-17 16:58N 29°58' W 093°51'0 0.0
2018-Jun-17 16:28N 29°58' W 093°51'0 0.0
2018-Jun-17 15:58N 29°58' W 093°51'0 0.0
2018-Jun-17 15:28N 29°58' W 093°51'0 0.0
2018-Jun-17 14:58N 29°58' W 093°51'0 0.0
2018-Jun-17 14:28N 29°58' W 093°51'0 0.0
2018-Jun-17 13:58N 29°58' W 093°51'0 0.0
2018-Jun-17 13:28N 29°58' W 093°51'0 0.0
2018-Jun-17 12:58N 29°58' W 093°51'0 0.0
2018-Jun-17 12:28N 29°58' W 093°51'0 0.0
2018-Jun-17 11:58N 29°58' W 093°51'0 0.0
2018-Jun-17 11:28N 29°58' W 093°51'0 0.0
2018-Jun-17 10:58N 29°58' W 093°51'0 0.0
2018-Jun-17 10:28N 29°58' W 093°51'0 0.0
2018-Jun-17 09:58N 29°58' W 093°51'0 0.0
2018-Jun-17 09:28N 29°58' W 093°51'0 0.0
2018-Jun-17 08:58N 29°58' W 093°51'0 0.0
2018-Jun-17 08:28N 29°58' W 093°51'0 0.0
2018-Jun-17 07:58N 29°58' W 093°51'0 0.0
2018-Jun-17 07:28N 29°58' W 093°51'0 0.0
2018-Jun-17 06:58N 29°58' W 093°51'0 0.0
2018-Jun-17 06:28N 29°58' W 093°51'0 0.0
2018-Jun-17 05:58N 29°58' W 093°51'0 0.0
2018-Jun-17 05:28N 29°58' W 093°51'0 0.0
2018-Jun-17 04:58N 29°58' W 093°51'0 0.0
2018-Jun-17 04:28N 29°58' W 093°51'0 0.0
2018-Jun-17 03:58N 29°58' W 093°51'0 0.0
2018-Jun-17 03:28N 29°58' W 093°51'0 0.0
2018-Jun-17 02:58N 29°58' W 093°51'0 0.0
2018-Jun-17 02:25N 29°58' W 093°51'0 0.0
2018-Jun-17 01:58N 29°58' W 093°51'0 0.0
2018-Jun-17 01:28N 29°58' W 093°51'0 0.0
2018-Jun-17 00:58N 29°58' W 093°51'0 0.0
2018-Jun-17 00:28N 29°58' W 093°51'0 0.0
2018-Jun-16 23:55N 29°58' W 093°51'0 0.0
2018-Jun-16 23:28N 29°58' W 093°51'0 0.0
2018-Jun-16 22:58N 29°58' W 093°51'0 0.0
2018-Jun-16 22:28N 29°58' W 093°51'0 0.0
2018-Jun-16 21:58N 29°58' W 093°51'0 0.0
2018-Jun-16 21:28N 29°58' W 093°51'0 0.0
2018-Jun-16 20:58N 29°58' W 093°51'0 0.0
2018-Jun-16 20:28N 29°58' W 093°51'0 0.0
2018-Jun-16 19:58N 29°58' W 093°51'0 0.0
2018-Jun-16 19:28N 29°58' W 093°51'1 1.7
2018-Jun-16 19:00N 29°58' W 093°52'1 1.6
2018-Jun-16 18:29N 29°58' W 093°51'0 0.0
2018-Jun-16 17:59N 29°58' W 093°51'0 0.0
2018-Jun-16 17:29N 29°58' W 093°51'0 0.0
2018-Jun-16 16:59N 29°58' W 093°51'0 0.0
2018-Jun-16 16:29N 29°58' W 093°51'0 0.0
2018-Jun-16 15:56N 29°58' W 093°51'0 0.0
2018-Jun-16 15:29N 29°58' W 093°51'0 0.0
2018-Jun-16 14:59N 29°58' W 093°51'0 0.0
2018-Jun-16 14:29N 29°58' W 093°51'0 0.0
2018-Jun-16 13:56N 29°58' W 093°51'0 0.0
2018-Jun-16 13:29N 29°58' W 093°51'0 0.0
2018-Jun-16 12:59N 29°58' W 093°51'0 0.0
2018-Jun-16 12:29N 29°58' W 093°51'0 0.0
2018-Jun-16 11:59N 29°58' W 093°51'0 0.0
2018-Jun-16 11:29N 29°58' W 093°51'0 0.0
2018-Jun-16 10:59N 29°58' W 093°51'0 0.0
2018-Jun-16 10:29N 29°58' W 093°51'0 0.0
2018-Jun-16 09:59N 29°58' W 093°51'0 0.0
2018-Jun-16 09:29N 29°58' W 093°51'0 0.0
2018-Jun-16 08:59N 29°58' W 093°51'0 0.0
2018-Jun-16 08:29N 29°58' W 093°51'0 0.0
2018-Jun-16 07:59N 29°58' W 093°51'0 0.0
2018-Jun-16 07:29N 29°58' W 093°51'0 0.0
2018-Jun-16 06:59N 29°58' W 093°51'0 0.0
2018-Jun-16 06:29N 29°58' W 093°51'0 0.0
2018-Jun-16 05:59N 29°58' W 093°51'0 0.0
2018-Jun-16 05:29N 29°58' W 093°51'0 0.0
2018-Jun-16 04:59N 29°58' W 093°51'0 0.0
2018-Jun-16 04:29N 29°58' W 093°51'0 0.0
2018-Jun-16 03:59N 29°58' W 093°51'0 0.0
2018-Jun-16 03:29N 29°58' W 093°51'0 0.0
2018-Jun-16 02:59N 29°58' W 093°51'0 0.0
2018-Jun-16 02:29N 29°58' W 093°51'0 0.0
2018-Jun-16 01:59N 29°58' W 093°51'0 0.0
2018-Jun-16 01:29N 29°58' W 093°51'0 0.0
2018-Jun-16 00:59N 29°58' W 093°51'0 0.0
2018-Jun-16 00:29N 29°58' W 093°51'0 0.0
2018-Jun-15 23:59N 29°58' W 093°51'0 0.0
2018-Jun-15 23:29N 29°58' W 093°51'0 0.0
2018-Jun-15 22:59N 29°58' W 093°51'0 0.0
2018-Jun-15 22:29N 29°58' W 093°51'0 0.0
2018-Jun-15 21:56N 29°58' W 093°51'0 0.0
2018-Jun-15 21:29N 29°58' W 093°51'0 0.0
2018-Jun-15 20:56N 29°58' W 093°51'0 0.0
2018-Jun-15 20:29N 29°58' W 093°51'0 0.0
2018-Jun-15 19:59N 29°58' W 093°51'0 0.0
2018-Jun-15 19:29N 29°58' W 093°51'0 0.0
2018-Jun-15 18:59N 29°58' W 093°51'0 0.0
2018-Jun-15 18:29N 29°58' W 093°51'0 0.0
2018-Jun-15 17:59N 29°58' W 093°51'0 0.0
2018-Jun-15 17:29N 29°58' W 093°51'0 0.0
2018-Jun-15 16:56N 29°58' W 093°51'0 0.0
2018-Jun-15 16:29N 29°58' W 093°51'0 0.0
2018-Jun-15 15:59N 29°58' W 093°51'0 0.0
2018-Jun-15 15:29N 29°58' W 093°51'0 0.0
2018-Jun-15 14:59N 29°58' W 093°51'0 0.0
2018-Jun-15 14:29N 29°58' W 093°51'0 0.1
2018-Jun-15 13:57N 29°58' W 093°51'0 0.2
2018-Jun-15 13:29N 29°58' W 093°51'0 0.0
2018-Jun-15 12:56N 29°58' W 093°51'0 0.0
2018-Jun-15 12:29N 29°58' W 093°51'0 0.0
2018-Jun-15 12:00N 29°58' W 093°51'0 0.0
2018-Jun-15 11:30N 29°58' W 093°51'0 0.0
2018-Jun-15 11:00N 29°58' W 093°51'0 0.0
2018-Jun-15 10:30N 29°58' W 093°51'0 0.0
2018-Jun-15 10:00N 29°58' W 093°51'0 0.0
2018-Jun-15 09:29N 29°58' W 093°51'0 0.0
2018-Jun-15 09:00N 29°58' W 093°51'0 0.0
2018-Jun-15 08:30N 29°58' W 093°51'0 0.0
2018-Jun-15 08:00N 29°58' W 093°51'0 0.0
2018-Jun-15 07:30N 29°58' W 093°51'0 0.0
2018-Jun-15 07:00N 29°58' W 093°51'0 0.0
2018-Jun-15 06:30N 29°58' W 093°51'0 0.0
2018-Jun-15 06:00N 29°58' W 093°51'0 0.0
2018-Jun-15 05:30N 29°58' W 093°51'0 0.0
2018-Jun-15 05:00N 29°58' W 093°51'1 1.5
2018-Jun-15 04:30N 29°58' W 093°51'0 0.0
2018-Jun-15 03:57N 29°58' W 093°51'0 0.0
2018-Jun-15 03:30N 29°58' W 093°51'0 0.0
2018-Jun-15 02:59N 29°58' W 093°51'0 0.9
2018-Jun-15 02:30N 29°58' W 093°51'0 0.3
2018-Jun-15 02:00N 29°58' W 093°51'0 0.7
2018-Jun-15 01:30N 29°58' W 093°51'3 5.9
2018-Jun-15 01:00N 29°59' W 093°55'3 6.4
2018-Jun-15 00:30N 30°01' W 093°58'3 6.5
2018-Jun-15 00:00N 30°01' W 094°02'1 1.3
2018-Jun-14 23:29N 30°02' W 094°02'0 0.0
2018-Jun-14 22:59N 30°02' W 094°02'0 0.0
2018-Jun-14 22:29N 30°02' W 094°02'0 0.0
2018-Jun-14 21:59N 30°02' W 094°02'0 0.0
2018-Jun-14 21:29N 30°02' W 094°02'0 0.0
2018-Jun-14 20:59N 30°02' W 094°02'0 0.0
2018-Jun-14 20:29N 30°02' W 094°02'0 0.0
2018-Jun-14 19:59N 30°02' W 094°02'0 0.0
2018-Jun-14 19:29N 30°02' W 094°02'0 0.0
2018-Jun-14 18:59N 30°02' W 094°02'0 0.0
2018-Jun-14 18:26N 30°02' W 094°02'0 0.0
2018-Jun-14 17:59N 30°02' W 094°02'0 0.0
2018-Jun-14 17:29N 30°02' W 094°02'0 0.0
2018-Jun-14 16:59N 30°02' W 094°02'0 0.0
2018-Jun-14 16:29N 30°02' W 094°02'0 0.0
2018-Jun-14 15:59N 30°02' W 094°02'0 0.0
2018-Jun-14 15:29N 30°02' W 094°02'0 0.0
2018-Jun-14 14:59N 30°02' W 094°02'0 0.0
2018-Jun-14 14:29N 30°02' W 094°02'0 0.0
2018-Jun-14 13:59N 30°02' W 094°02'0 0.0
2018-Jun-14 13:29N 30°02' W 094°02'0 0.0
2018-Jun-14 12:56N 30°02' W 094°02'0 0.0
2018-Jun-14 12:29N 30°02' W 094°02'0 0.0
2018-Jun-14 11:59N 30°02' W 094°02'0 0.0
2018-Jun-14 11:29N 30°02' W 094°02'0 0.0
2018-Jun-14 11:01N 30°02' W 094°02'0 0.0
2018-Jun-14 10:30N 30°02' W 094°02'0 0.0
2018-Jun-14 10:00N 30°02' W 094°02'0 0.0
2018-Jun-14 09:30N 30°02' W 094°02'0 0.0
2018-Jun-14 09:01N 30°02' W 094°02'0 0.0
2018-Jun-14 08:30N 30°02' W 094°02'0 0.0
2018-Jun-14 08:00N 30°02' W 094°02'0 0.0
2018-Jun-14 07:30N 30°02' W 094°02'0 0.0
2018-Jun-14 07:00N 30°02' W 094°02'0 0.0
2018-Jun-14 06:30N 30°02' W 094°02'0 0.0
2018-Jun-14 06:01N 30°02' W 094°02'0 0.0
2018-Jun-14 05:30N 30°02' W 094°02'0 0.0
2018-Jun-14 05:00N 30°02' W 094°02'0 0.0
2018-Jun-14 04:30N 30°02' W 094°02'0 0.0
2018-Jun-14 04:00N 30°02' W 094°02'0 0.0
2018-Jun-14 03:30N 30°02' W 094°02'0 0.0
2018-Jun-14 03:00N 30°02' W 094°02'0 0.0
2018-Jun-14 02:30N 30°02' W 094°02'0 0.0
2018-Jun-14 02:00N 30°02' W 094°02'0 0.0
2018-Jun-14 01:30N 30°02' W 094°02'0 0.0
2018-Jun-14 01:00N 30°02' W 094°02'1 1.5
2018-Jun-14 00:29N 30°01' W 094°01'3 5.5
2018-Jun-14 00:00N 30°01' W 093°58'2 4.3
2018-Jun-13 23:30N 29°60' W 093°56'1 2.3
2018-Jun-13 23:00N 29°60' W 093°55'0 0.1
2018-Jun-13 22:30N 29°60' W 093°55'2 3.7
2018-Jun-13 21:58N 29°59' W 093°53'0 0.0
2018-Jun-13 21:28N 29°59' W 093°53'0 0.0
2018-Jun-13 20:58N 29°59' W 093°53'0 0.0
2018-Jun-13 20:29N 29°59' W 093°53'0 0.0
2018-Jun-13 19:58N 29°59' W 093°53'0 0.0
2018-Jun-13 19:28N 29°59' W 093°53'0 0.0
2018-Jun-13 18:55N 29°59' W 093°53'0 0.0
2018-Jun-13 18:28N 29°59' W 093°53'0 0.0
2018-Jun-13 17:58N 29°59' W 093°53'0 0.0
2018-Jun-13 17:28N 29°59' W 093°53'0 0.0
2018-Jun-13 16:58N 29°59' W 093°53'0 0.0
2018-Jun-13 16:28N 29°59' W 093°53'0 0.0
2018-Jun-13 15:58N 29°59' W 093°53'0 0.0
2018-Jun-13 15:28N 29°59' W 093°53'0 0.0
2018-Jun-13 14:58N 29°59' W 093°53'0 0.0
2018-Jun-13 14:28N 29°59' W 093°53'0 0.0
2018-Jun-13 13:58N 29°59' W 093°53'0 0.0
2018-Jun-13 13:28N 29°59' W 093°53'0 0.0
2018-Jun-13 12:58N 29°59' W 093°53'0 0.0
2018-Jun-13 12:28N 29°59' W 093°53'0 0.0
2018-Jun-13 11:58N 29°59' W 093°53'0 0.0
2018-Jun-13 11:28N 29°59' W 093°53'0 0.0
2018-Jun-13 10:58N 29°59' W 093°53'0 0.0
2018-Jun-13 10:28N 29°59' W 093°53'0 0.0
2018-Jun-13 09:58N 29°59' W 093°53'0 0.0
2018-Jun-13 09:28N 29°59' W 093°53'0 0.0
2018-Jun-13 08:58N 29°59' W 093°53'0 0.0
2018-Jun-13 08:28N 29°59' W 093°53'0 0.0
2018-Jun-13 07:58N 29°59' W 093°53'0 0.0
2018-Jun-13 07:28N 29°59' W 093°53'0 0.0
2018-Jun-13 06:58N 29°59' W 093°53'0 0.0
2018-Jun-13 06:28N 29°59' W 093°53'0 0.0
2018-Jun-13 05:58N 29°59' W 093°53'0 0.0
2018-Jun-13 05:28N 29°59' W 093°53'0 0.0
2018-Jun-13 04:58N 29°59' W 093°53'0 0.0
2018-Jun-13 04:28N 29°59' W 093°53'0 0.0
2018-Jun-13 03:58N 29°59' W 093°53'0 0.0
2018-Jun-13 03:28N 29°59' W 093°53'0 0.0
2018-Jun-13 02:58N 29°59' W 093°53'0 0.0
2018-Jun-13 02:28N 29°59' W 093°53'0 0.0
2018-Jun-13 01:58N 29°59' W 093°53'0 0.0
2018-Jun-13 01:28N 29°59' W 093°53'0 0.0
2018-Jun-13 01:00N 29°59' W 093°53'0 0.0
2018-Jun-13 00:30N 29°59' W 093°53'0 0.0
2018-Jun-13 00:00N 29°59' W 093°53'0 0.0
2018-Jun-12 23:30N 29°59' W 093°53'0 0.0
2018-Jun-12 23:00N 29°59' W 093°53'0 0.0
2018-Jun-12 22:30N 29°59' W 093°53'0 0.0
2018-Jun-12 22:00N 29°59' W 093°53'0 0.0
2018-Jun-12 21:30N 29°59' W 093°53'2 3.4
2018-Jun-12 21:00N 29°60' W 093°55'0 0.1
2018-Jun-12 20:30N 29°60' W 093°55'0 0.5
2018-Jun-12 20:01N 29°60' W 093°55'0 0.0
2018-Jun-12 19:30N 29°60' W 093°55'0 0.0
2018-Jun-12 19:01N 29°60' W 093°55'0 0.0
2018-Jun-12 18:30N 29°60' W 093°55'0 0.0
2018-Jun-12 18:00N 29°60' W 093°55'0 0.0
2018-Jun-12 17:30N 29°60' W 093°55'0 0.0
2018-Jun-12 17:00N 29°60' W 093°55'0 0.0
2018-Jun-12 16:30N 29°60' W 093°55'0 0.0
2018-Jun-12 16:00N 29°60' W 093°55'0 0.0
2018-Jun-12 15:30N 29°60' W 093°55'0 0.0
2018-Jun-12 15:00N 29°60' W 093°55'0 0.0
2018-Jun-12 14:31N 29°60' W 093°55'0 0.0
2018-Jun-12 14:00N 29°60' W 093°55'0 0.0
2018-Jun-12 13:30N 29°60' W 093°55'0 0.0
2018-Jun-12 13:00N 29°60' W 093°55'0 0.0
2018-Jun-12 12:30N 29°60' W 093°55'0 0.0
2018-Jun-12 12:01N 29°60' W 093°55'0 0.0
2018-Jun-12 11:30N 29°60' W 093°55'0 0.0
2018-Jun-12 11:01N 29°60' W 093°55'0 0.0
2018-Jun-12 10:31N 29°60' W 093°55'0 0.0
2018-Jun-12 10:01N 29°60' W 093°55'0 0.0
2018-Jun-12 09:29N 29°60' W 093°55'0 0.0
2018-Jun-12 09:00N 29°60' W 093°55'0 0.0
2018-Jun-12 08:30N 29°60' W 093°55'0 0.0
2018-Jun-12 08:01N 29°60' W 093°55'0 0.0
2018-Jun-12 07:31N 29°60' W 093°55'0 0.0
2018-Jun-12 07:00N 29°60' W 093°55'0 0.0
2018-Jun-12 06:31N 29°60' W 093°55'0 0.0
2018-Jun-12 06:00N 29°60' W 093°55'0 0.0
2018-Jun-12 05:31N 29°60' W 093°55'0 0.0
2018-Jun-12 05:01N 29°60' W 093°55'0 0.0
2018-Jun-12 04:30N 29°60' W 093°55'0 0.0
2018-Jun-12 04:00N 29°60' W 093°55'0 0.0
2018-Jun-12 03:30N 29°60' W 093°55'0 0.0
2018-Jun-12 03:01N 29°60' W 093°55'0 0.0
2018-Jun-12 02:31N 29°60' W 093°55'0 0.0
2018-Jun-12 02:00N 29°60' W 093°55'0 0.0
2018-Jun-12 01:30N 29°60' W 093°55'0 0.0
2018-Jun-12 01:01N 29°60' W 093°55'0 0.0
2018-Jun-12 00:30N 29°60' W 093°55'0 0.0
2018-Jun-12 00:01N 29°60' W 093°55'0 0.0
2018-Jun-11 23:30N 29°60' W 093°55'0 0.0
2018-Jun-11 23:00N 29°60' W 093°55'0 0.0
2018-Jun-11 22:31N 29°60' W 093°55'0 0.0
2018-Jun-11 22:01N 29°60' W 093°55'0 0.0
2018-Jun-11 21:31N 29°60' W 093°55'0 0.0
2018-Jun-11 21:01N 29°60' W 093°55'0 0.0
2018-Jun-11 20:31N 29°60' W 093°55'0 0.0
2018-Jun-11 20:01N 29°60' W 093°55'0 0.0
2018-Jun-11 19:30N 29°60' W 093°55'0 0.0
2018-Jun-11 19:00N 29°60' W 093°55'0 0.0
2018-Jun-11 18:31N 29°60' W 093°55'0 0.0
2018-Jun-11 18:00N 29°60' W 093°55'0 0.0
2018-Jun-11 17:30N 29°60' W 093°55'0 0.0
2018-Jun-11 17:01N 29°60' W 093°55'0 0.0
2018-Jun-11 16:31N 29°60' W 093°55'0 0.0
2018-Jun-11 16:00N 29°60' W 093°55'  

Dump ship's entire track history